sensor_id;sensor_type;location;lat;lon;timestamp;P1;durP1;ratioP1;P2;durP2;ratioP2
13368;SDS011;6753;52.520;13.450;2024-02-28T00:00:05;189.75;;;64.95;;
13368;SDS011;6753;52.520;13.450;2024-02-28T00:00:17;184.88;;;62.95;;
13368;SDS011;6753;52.520;13.450;2024-02-28T00:00:29;175.02;;;61.40;;
13368;SDS011;6753;52.520;13.450;2024-02-28T00:00:40;178.68;;;61.97;;
13368;SDS011;6753;52.520;13.450;2024-02-28T00:00:51;178.07;;;62.63;;
13368;SDS011;6753;52.520;13.450;2024-02-28T00:01:03;177.77;;;62.53;;
13368;SDS011;6753;52.520;13.450;2024-02-28T00:01:15;174.73;;;60.90;;
13368;SDS011;6753;52.520;13.450;2024-02-28T00:01:26;184.15;;;63.55;;
13368;SDS011;6753;52.520;13.450;2024-02-28T00:01:37;186.60;;;65.57;;
13368;SDS011;6753;52.520;13.450;2024-02-28T00:01:48;178.68;;;64.45;;
13368;SDS011;6753;52.520;13.450;2024-02-28T00:01:59;170.10;;;63.45;;
13368;SDS011;6753;52.520;13.450;2024-02-28T00:02:11;169.77;;;63.70;;
13368;SDS011;6753;52.520;13.450;2024-02-28T00:02:22;166.27;;;62.50;;
13368;SDS011;6753;52.520;13.450;2024-02-28T00:02:33;165.43;;;60.77;;
13368;SDS011;6753;52.520;13.450;2024-02-28T00:02:44;174.27;;;60.05;;
13368;SDS011;6753;52.520;13.450;2024-02-28T00:02:55;180.02;;;60.67;;
13368;SDS011;6753;52.520;13.450;2024-02-28T00:03:05;183.00;;;60.40;;
13368;SDS011;6753;52.520;13.450;2024-02-28T00:03:16;182.20;;;59.05;;
13368;SDS011;6753;52.520;13.450;2024-02-28T00:03:27;179.15;;;59.03;;
13368;SDS011;6753;52.520;13.450;2024-02-28T00:03:37;173.48;;;58.10;;
13368;SDS011;6753;52.520;13.450;2024-02-28T00:03:48;169.23;;;57.17;;
13368;SDS011;6753;52.520;13.450;2024-02-28T00:03:59;166.05;;;55.70;;
13368;SDS011;6753;52.520;13.450;2024-02-28T00:04:11;162.48;;;56.55;;
13368;SDS011;6753;52.520;13.450;2024-02-28T00:04:21;169.53;;;58.93;;
13368;SDS011;6753;52.520;13.450;2024-02-28T00:04:32;170.63;;;57.75;;
13368;SDS011;6753;52.520;13.450;2024-02-28T00:04:43;172.00;;;58.70;;
13368;SDS011;6753;52.520;13.450;2024-02-28T00:04:53;169.77;;;58.63;;
13368;SDS011;6753;52.520;13.450;2024-02-28T00:05:05;179.52;;;61.13;;
13368;SDS011;6753;52.520;13.450;2024-02-28T00:05:16;200.63;;;69.70;;
13368;SDS011;6753;52.520;13.450;2024-02-28T00:05:27;206.35;;;71.40;;
13368;SDS011;6753;52.520;13.450;2024-02-28T00:05:37;224.43;;;70.90;;
13368;SDS011;6753;52.520;13.450;2024-02-28T00:05:49;230.85;;;70.60;;
13368;SDS011;6753;52.520;13.450;2024-02-28T00:05:59;229.73;;;72.70;;
13368;SDS011;6753;52.520;13.450;2024-02-28T00:06:11;230.82;;;72.72;;
13368;SDS011;6753;52.520;13.450;2024-02-28T00:06:22;223.35;;;71.18;;
13368;SDS011;6753;52.520;13.450;2024-02-28T00:06:33;212.07;;;69.63;;
13368;SDS011;6753;52.520;13.450;2024-02-28T00:06:43;204.55;;;71.82;;
13368;SDS011;6753;52.520;13.450;2024-02-28T00:06:56;200.57;;;69.85;;
13368;SDS011;6753;52.520;13.450;2024-02-28T00:07:06;184.47;;;66.70;;
13368;SDS011;6753;52.520;13.450;2024-02-28T00:07:17;187.90;;;67.45;;
13368;SDS011;6753;52.520;13.450;2024-02-28T00:07:28;196.45;;;70.10;;
13368;SDS011;6753;52.520;13.450;2024-02-28T00:07:42;210.75;;;72.28;;
13368;SDS011;6753;52.520;13.450;2024-02-28T00:07:52;214.27;;;71.40;;
13368;SDS011;6753;52.520;13.450;2024-02-28T00:08:07;226.77;;;76.03;;
13368;SDS011;6753;52.520;13.450;2024-02-28T00:08:20;225.73;;;76.40;;
13368;SDS011;6753;52.520;13.450;2024-02-28T00:08:31;222.20;;;76.10;;
13368;SDS011;6753;52.520;13.450;2024-02-28T00:08:42;210.13;;;74.90;;
13368;SDS011;6753;52.520;13.450;2024-02-28T00:08:53;209.47;;;76.00;;
13368;SDS011;6753;52.520;13.450;2024-02-28T00:09:04;207.82;;;73.90;;
13368;SDS011;6753;52.520;13.450;2024-02-28T00:09:15;208.05;;;73.88;;
13368;SDS011;6753;52.520;13.450;2024-02-28T00:09:26;217.45;;;74.65;;
13368;SDS011;6753;52.520;13.450;2024-02-28T00:09:37;229.43;;;74.13;;
13368;SDS011;6753;52.520;13.450;2024-02-28T00:09:48;231.47;;;73.70;;
13368;SDS011;6753;52.520;13.450;2024-02-28T00:09:59;227.40;;;72.10;;
13368;SDS011;6753;52.520;13.450;2024-02-28T00:10:09;227.32;;;71.57;;
13368;SDS011;6753;52.520;13.450;2024-02-28T00:10:21;219.00;;;69.00;;
13368;SDS011;6753;52.520;13.450;2024-02-28T00:10:32;220.17;;;69.43;;
13368;SDS011;6753;52.520;13.450;2024-02-28T00:10:43;202.55;;;68.18;;
13368;SDS011;6753;52.520;13.450;2024-02-28T00:10:53;204.18;;;67.90;;
13368;SDS011;6753;52.520;13.450;2024-02-28T00:11:04;198.90;;;67.60;;
13368;SDS011;6753;52.520;13.450;2024-02-28T00:11:15;190.45;;;65.70;;
13368;SDS011;6753;52.520;13.450;2024-02-28T00:11:25;192.80;;;65.18;;
13368;SDS011;6753;52.520;13.450;2024-02-28T00:11:36;189.47;;;62.77;;
13368;SDS011;6753;52.520;13.450;2024-02-28T00:11:52;176.20;;;60.85;;
13368;SDS011;6753;52.520;13.450;2024-02-28T00:12:04;177.40;;;60.53;;
13368;SDS011;6753;52.520;13.450;2024-02-28T00:12:16;169.05;;;58.25;;
13368;SDS011;6753;52.520;13.450;2024-02-28T00:12:27;166.80;;;57.60;;
13368;SDS011;6753;52.520;13.450;2024-02-28T00:12:38;165.18;;;57.00;;
13368;SDS011;6753;52.520;13.450;2024-02-28T00:12:49;165.38;;;55.33;;
13368;SDS011;6753;52.520;13.450;2024-02-28T00:13:00;161.23;;;55.03;;
13368;SDS011;6753;52.520;13.450;2024-02-28T00:13:10;168.20;;;56.23;;
13368;SDS011;6753;52.520;13.450;2024-02-28T00:13:21;170.88;;;56.03;;
13368;SDS011;6753;52.520;13.450;2024-02-28T00:13:34;166.48;;;56.05;;
13368;SDS011;6753;52.520;13.450;2024-02-28T00:13:45;165.88;;;56.35;;
13368;SDS011;6753;52.520;13.450;2024-02-28T00:13:56;168.90;;;56.30;;
13368;SDS011;6753;52.520;13.450;2024-02-28T00:14:06;159.70;;;54.77;;
13368;SDS011;6753;52.520;13.450;2024-02-28T00:14:17;162.00;;;53.25;;
13368;SDS011;6753;52.520;13.450;2024-02-28T00:14:28;159.63;;;52.42;;
13368;SDS011;6753;52.520;13.450;2024-02-28T00:14:39;158.48;;;52.10;;
13368;SDS011;6753;52.520;13.450;2024-02-28T00:14:50;165.68;;;52.83;;
13368;SDS011;6753;52.520;13.450;2024-02-28T00:15:01;160.77;;;52.37;;
13368;SDS011;6753;52.520;13.450;2024-02-28T00:15:11;156.40;;;50.97;;
13368;SDS011;6753;52.520;13.450;2024-02-28T00:15:22;149.02;;;50.80;;
13368;SDS011;6753;52.520;13.450;2024-02-28T00:15:34;147.75;;;51.25;;
13368;SDS011;6753;52.520;13.450;2024-02-28T00:15:45;148.20;;;50.17;;
13368;SDS011;6753;52.520;13.450;2024-02-28T00:15:55;139.10;;;48.72;;
13368;SDS011;6753;52.520;13.450;2024-02-28T00:16:06;134.57;;;47.35;;
13368;SDS011;6753;52.520;13.450;2024-02-28T00:16:17;133.40;;;47.97;;
13368;SDS011;6753;52.520;13.450;2024-02-28T00:16:27;137.18;;;48.70;;
13368;SDS011;6753;52.520;13.450;2024-02-28T00:16:39;138.68;;;49.00;;
13368;SDS011;6753;52.520;13.450;2024-02-28T00:16:53;144.40;;;49.40;;
13368;SDS011;6753;52.520;13.450;2024-02-28T00:17:05;158.80;;;51.90;;
13368;SDS011;6753;52.520;13.450;2024-02-28T00:17:15;169.20;;;53.70;;
13368;SDS011;6753;52.520;13.450;2024-02-28T00:17:27;174.88;;;54.72;;
13368;SDS011;6753;52.520;13.450;2024-02-28T00:17:38;168.70;;;52.67;;
13368;SDS011;6753;52.520;13.450;2024-02-28T00:17:51;167.07;;;52.95;;
13368;SDS011;6753;52.520;13.450;2024-02-28T00:18:02;163.35;;;53.85;;
13368;SDS011;6753;52.520;13.450;2024-02-28T00:18:13;161.38;;;53.92;;
13368;SDS011;6753;52.520;13.450;2024-02-28T00:18:24;158.50;;;54.30;;
13368;SDS011;6753;52.520;13.450;2024-02-28T00:18:35;164.85;;;56.00;;
13368;SDS011;6753;52.520;13.450;2024-02-28T00:18:47;172.85;;;55.70;;
13368;SDS011;6753;52.520;13.450;2024-02-28T00:18:57;175.25;;;56.40;;
13368;SDS011;6753;52.520;13.450;2024-02-28T00:19:08;177.75;;;56.53;;
13368;SDS011;6753;52.520;13.450;2024-02-28T00:19:21;184.43;;;59.15;;
13368;SDS011;6753;52.520;13.450;2024-02-28T00:19:35;169.85;;;55.53;;
13368;SDS011;6753;52.520;13.450;2024-02-28T00:19:46;161.15;;;55.95;;
13368;SDS011;6753;52.520;13.450;2024-02-28T00:19:56;169.05;;;56.80;;
13368;SDS011;6753;52.520;13.450;2024-02-28T00:20:07;174.70;;;58.40;;
13368;SDS011;6753;52.520;13.450;2024-02-28T00:20:19;167.25;;;56.35;;
13368;SDS011;6753;52.520;13.450;2024-02-28T00:20:29;164.85;;;57.95;;
13368;SDS011;6753;52.520;13.450;2024-02-28T00:20:41;179.82;;;60.63;;
13368;SDS011;6753;52.520;13.450;2024-02-28T00:20:54;185.50;;;61.75;;
13368;SDS011;6753;52.520;13.450;2024-02-28T00:21:06;186.50;;;61.90;;
13368;SDS011;6753;52.520;13.450;2024-02-28T00:21:16;191.32;;;63.35;;
13368;SDS011;6753;52.520;13.450;2024-02-28T00:21:27;190.07;;;63.23;;
13368;SDS011;6753;52.520;13.450;2024-02-28T00:21:38;190.27;;;62.90;;
13368;SDS011;6753;52.520;13.450;2024-02-28T00:21:49;182.87;;;62.77;;
13368;SDS011;6753;52.520;13.450;2024-02-28T00:22:00;190.57;;;64.72;;
13368;SDS011;6753;52.520;13.450;2024-02-28T00:22:11;185.60;;;62.70;;
13368;SDS011;6753;52.520;13.450;2024-02-28T00:22:22;188.20;;;63.58;;
13368;SDS011;6753;52.520;13.450;2024-02-28T00:22:32;199.60;;;66.03;;
13368;SDS011;6753;52.520;13.450;2024-02-28T00:22:43;211.05;;;69.45;;
13368;SDS011;6753;52.520;13.450;2024-02-28T00:22:55;219.40;;;71.18;;
13368;SDS011;6753;52.520;13.450;2024-02-28T00:23:06;234.00;;;75.40;;
13368;SDS011;6753;52.520;13.450;2024-02-28T00:23:16;237.20;;;77.47;;
13368;SDS011;6753;52.520;13.450;2024-02-28T00:23:27;235.10;;;75.47;;
13368;SDS011;6753;52.520;13.450;2024-02-28T00:23:38;235.85;;;76.22;;
13368;SDS011;6753;52.520;13.450;2024-02-28T00:23:49;245.23;;;77.43;;
13368;SDS011;6753;52.520;13.450;2024-02-28T00:23:59;242.03;;;77.60;;
13368;SDS011;6753;52.520;13.450;2024-02-28T00:24:10;190.70;;;69.28;;
13368;SDS011;6753;52.520;13.450;2024-02-28T00:24:21;212.65;;;72.63;;
13368;SDS011;6753;52.520;13.450;2024-02-28T00:24:31;203.03;;;71.13;;
13368;SDS011;6753;52.520;13.450;2024-02-28T00:24:42;200.30;;;71.28;;
13368;SDS011;6753;52.520;13.450;2024-02-28T00:24:54;203.05;;;71.47;;
13368;SDS011;6753;52.520;13.450;2024-02-28T00:25:05;205.47;;;72.73;;
13368;SDS011;6753;52.520;13.450;2024-02-28T00:25:16;209.82;;;82.05;;
13368;SDS011;6753;52.520;13.450;2024-02-28T00:25:27;229.15;;;83.82;;
13368;SDS011;6753;52.520;13.450;2024-02-28T00:25:38;238.43;;;85.60;;
13368;SDS011;6753;52.520;13.450;2024-02-28T00:25:48;246.57;;;87.90;;
13368;SDS011;6753;52.520;13.450;2024-02-28T00:25:59;253.95;;;89.53;;
13368;SDS011;6753;52.520;13.450;2024-02-28T00:26:11;269.30;;;91.85;;
13368;SDS011;6753;52.520;13.450;2024-02-28T00:26:22;280.27;;;93.63;;
13368;SDS011;6753;52.520;13.450;2024-02-28T00:26:33;283.33;;;96.15;;
13368;SDS011;6753;52.520;13.450;2024-02-28T00:26:45;299.73;;;98.55;;
13368;SDS011;6753;52.520;13.450;2024-02-28T00:26:56;294.00;;;97.63;;
13368;SDS011;6753;52.520;13.450;2024-02-28T00:27:06;286.23;;;98.25;;
13368;SDS011;6753;52.520;13.450;2024-02-28T00:27:19;275.63;;;96.63;;
13368;SDS011;6753;52.520;13.450;2024-02-28T00:27:29;265.45;;;92.70;;
13368;SDS011;6753;52.520;13.450;2024-02-28T00:27:40;233.32;;;85.13;;
13368;SDS011;6753;52.520;13.450;2024-02-28T00:27:51;221.20;;;80.57;;
13368;SDS011;6753;52.520;13.450;2024-02-28T00:28:02;223.57;;;79.55;;
13368;SDS011;6753;52.520;13.450;2024-02-28T00:28:14;217.45;;;77.18;;
13368;SDS011;6753;52.520;13.450;2024-02-28T00:28:24;227.50;;;78.47;;
13368;SDS011;6753;52.520;13.450;2024-02-28T00:28:35;240.93;;;83.50;;
13368;SDS011;6753;52.520;13.450;2024-02-28T00:28:46;245.52;;;86.93;;
13368;SDS011;6753;52.520;13.450;2024-02-28T00:28:57;239.83;;;86.13;;
13368;SDS011;6753;52.520;13.450;2024-02-28T00:29:08;244.95;;;85.80;;
13368;SDS011;6753;52.520;13.450;2024-02-28T00:29:18;236.52;;;85.03;;
13368;SDS011;6753;52.520;13.450;2024-02-28T00:29:29;225.17;;;81.47;;
13368;SDS011;6753;52.520;13.450;2024-02-28T00:29:40;225.60;;;78.68;;
13368;SDS011;6753;52.520;13.450;2024-02-28T00:29:51;236.98;;;78.13;;
13368;SDS011;6753;52.520;13.450;2024-02-28T00:30:01;242.73;;;77.32;;
13368;SDS011;6753;52.520;13.450;2024-02-28T00:30:16;246.95;;;77.50;;
13368;SDS011;6753;52.520;13.450;2024-02-28T00:30:27;247.57;;;79.53;;
13368;SDS011;6753;52.520;13.450;2024-02-28T00:30:38;250.38;;;80.32;;
13368;SDS011;6753;52.520;13.450;2024-02-28T00:30:49;250.10;;;81.80;;
13368;SDS011;6753;52.520;13.450;2024-02-28T00:31:00;245.97;;;82.27;;
13368;SDS011;6753;52.520;13.450;2024-02-28T00:31:11;245.90;;;83.32;;
13368;SDS011;6753;52.520;13.450;2024-02-28T00:31:22;244.13;;;82.70;;
13368;SDS011;6753;52.520;13.450;2024-02-28T00:31:33;244.70;;;81.43;;
13368;SDS011;6753;52.520;13.450;2024-02-28T00:31:44;237.48;;;81.15;;
13368;SDS011;6753;52.520;13.450;2024-02-28T00:31:54;226.37;;;79.50;;
13368;SDS011;6753;52.520;13.450;2024-02-28T00:32:05;218.60;;;76.60;;
13368;SDS011;6753;52.520;13.450;2024-02-28T00:32:17;207.57;;;72.90;;
13368;SDS011;6753;52.520;13.450;2024-02-28T00:32:28;201.63;;;72.93;;
13368;SDS011;6753;52.520;13.450;2024-02-28T00:32:39;202.10;;;73.18;;
13368;SDS011;6753;52.520;13.450;2024-02-28T00:32:49;201.18;;;72.43;;
13368;SDS011;6753;52.520;13.450;2024-02-28T00:33:00;208.40;;;74.22;;
13368;SDS011;6753;52.520;13.450;2024-02-28T00:33:11;218.15;;;78.60;;
13368;SDS011;6753;52.520;13.450;2024-02-28T00:33:21;225.90;;;81.17;;
13368;SDS011;6753;52.520;13.450;2024-02-28T00:33:32;224.93;;;81.05;;
13368;SDS011;6753;52.520;13.450;2024-02-28T00:33:43;226.82;;;80.00;;
13368;SDS011;6753;52.520;13.450;2024-02-28T00:33:54;227.93;;;83.23;;
13368;SDS011;6753;52.520;13.450;2024-02-28T00:34:04;233.32;;;85.15;;
13368;SDS011;6753;52.520;13.450;2024-02-28T00:34:16;235.15;;;83.95;;
13368;SDS011;6753;52.520;13.450;2024-02-28T00:34:27;244.77;;;86.10;;
13368;SDS011;6753;52.520;13.450;2024-02-28T00:34:39;243.75;;;85.88;;
13368;SDS011;6753;52.520;13.450;2024-02-28T00:34:49;235.65;;;84.07;;
13368;SDS011;6753;52.520;13.450;2024-02-28T00:35:00;223.38;;;78.85;;
13368;SDS011;6753;52.520;13.450;2024-02-28T00:35:11;213.50;;;76.45;;
13368;SDS011;6753;52.520;13.450;2024-02-28T00:35:22;213.17;;;75.00;;
13368;SDS011;6753;52.520;13.450;2024-02-28T00:35:32;208.52;;;71.85;;
13368;SDS011;6753;52.520;13.450;2024-02-28T00:35:43;214.23;;;73.53;;
13368;SDS011;6753;52.520;13.450;2024-02-28T00:35:54;215.10;;;73.60;;
13368;SDS011;6753;52.520;13.450;2024-02-28T00:36:05;225.70;;;76.57;;
13368;SDS011;6753;52.520;13.450;2024-02-28T00:36:16;228.50;;;78.40;;
13368;SDS011;6753;52.520;13.450;2024-02-28T00:36:26;229.80;;;81.35;;
13368;SDS011;6753;52.520;13.450;2024-02-28T00:36:37;240.50;;;83.70;;
13368;SDS011;6753;52.520;13.450;2024-02-28T00:36:48;252.87;;;87.87;;
13368;SDS011;6753;52.520;13.450;2024-02-28T00:36:59;250.38;;;87.20;;
13368;SDS011;6753;52.520;13.450;2024-02-28T00:37:10;254.18;;;88.15;;
13368;SDS011;6753;52.520;13.450;2024-02-28T00:37:21;260.77;;;88.60;;
13368;SDS011;6753;52.520;13.450;2024-02-28T00:37:32;266.45;;;90.65;;
13368;SDS011;6753;52.520;13.450;2024-02-28T00:37:44;268.48;;;92.30;;
13368;SDS011;6753;52.520;13.450;2024-02-28T00:37:55;280.52;;;95.72;;
13368;SDS011;6753;52.520;13.450;2024-02-28T00:38:05;278.60;;;96.13;;
13368;SDS011;6753;52.520;13.450;2024-02-28T00:38:18;281.88;;;95.32;;
13368;SDS011;6753;52.520;13.450;2024-02-28T00:38:29;291.35;;;96.43;;
13368;SDS011;6753;52.520;13.450;2024-02-28T00:38:39;286.45;;;95.95;;
13368;SDS011;6753;52.520;13.450;2024-02-28T00:38:51;278.00;;;93.90;;
13368;SDS011;6753;52.520;13.450;2024-02-28T00:39:03;279.95;;;94.80;;
13368;SDS011;6753;52.520;13.450;2024-02-28T00:39:14;283.73;;;94.95;;
13368;SDS011;6753;52.520;13.450;2024-02-28T00:39:24;273.42;;;93.82;;
13368;SDS011;6753;52.520;13.450;2024-02-28T00:39:35;271.33;;;91.80;;
13368;SDS011;6753;52.520;13.450;2024-02-28T00:39:46;267.85;;;90.97;;
13368;SDS011;6753;52.520;13.450;2024-02-28T00:39:57;269.10;;;92.65;;
13368;SDS011;6753;52.520;13.450;2024-02-28T00:40:08;272.40;;;92.95;;
13368;SDS011;6753;52.520;13.450;2024-02-28T00:40:19;269.42;;;93.45;;
13368;SDS011;6753;52.520;13.450;2024-02-28T00:40:30;274.65;;;96.90;;
13368;SDS011;6753;52.520;13.450;2024-02-28T00:40:41;281.00;;;99.55;;
13368;SDS011;6753;52.520;13.450;2024-02-28T00:40:51;275.92;;;97.03;;
13368;SDS011;6753;52.520;13.450;2024-02-28T00:41:02;270.57;;;95.83;;
13368;SDS011;6753;52.520;13.450;2024-02-28T00:41:13;291.27;;;100.20;;
13368;SDS011;6753;52.520;13.450;2024-02-28T00:41:25;333.73;;;109.97;;
13368;SDS011;6753;52.520;13.450;2024-02-28T00:41:36;338.80;;;109.13;;
13368;SDS011;6753;52.520;13.450;2024-02-28T00:41:47;329.60;;;107.25;;
13368;SDS011;6753;52.520;13.450;2024-02-28T00:41:58;326.05;;;109.68;;
13368;SDS011;6753;52.520;13.450;2024-02-28T00:42:09;331.88;;;111.72;;
13368;SDS011;6753;52.520;13.450;2024-02-28T00:42:21;326.37;;;111.27;;
13368;SDS011;6753;52.520;13.450;2024-02-28T00:42:32;326.00;;;112.70;;
13368;SDS011;6753;52.520;13.450;2024-02-28T00:42:42;326.87;;;114.93;;
13368;SDS011;6753;52.520;13.450;2024-02-28T00:42:53;318.67;;;112.50;;
13368;SDS011;6753;52.520;13.450;2024-02-28T00:43:04;316.90;;;111.88;;
13368;SDS011;6753;52.520;13.450;2024-02-28T00:43:16;322.55;;;113.40;;
13368;SDS011;6753;52.520;13.450;2024-02-28T00:43:27;325.30;;;114.20;;
13368;SDS011;6753;52.520;13.450;2024-02-28T00:43:37;318.65;;;113.40;;
13368;SDS011;6753;52.520;13.450;2024-02-28T00:43:48;326.65;;;114.70;;
13368;SDS011;6753;52.520;13.450;2024-02-28T00:43:59;337.30;;;115.53;;
13368;SDS011;6753;52.520;13.450;2024-02-28T00:44:10;328.17;;;113.60;;
13368;SDS011;6753;52.520;13.450;2024-02-28T00:44:20;314.55;;;109.75;;
13368;SDS011;6753;52.520;13.450;2024-02-28T00:44:31;307.98;;;107.93;;
13368;SDS011;6753;52.520;13.450;2024-02-28T00:44:42;311.73;;;110.68;;
13368;SDS011;6753;52.520;13.450;2024-02-28T00:44:53;319.63;;;110.43;;
13368;SDS011;6753;52.520;13.450;2024-02-28T00:45:04;322.35;;;113.03;;
13368;SDS011;6753;52.520;13.450;2024-02-28T00:45:15;333.13;;;112.43;;
13368;SDS011;6753;52.520;13.450;2024-02-28T00:45:26;342.27;;;114.43;;
13368;SDS011;6753;52.520;13.450;2024-02-28T00:45:38;334.20;;;111.82;;
13368;SDS011;6753;52.520;13.450;2024-02-28T00:45:49;323.67;;;108.40;;
13368;SDS011;6753;52.520;13.450;2024-02-28T00:46:00;311.40;;;107.90;;
13368;SDS011;6753;52.520;13.450;2024-02-28T00:46:11;306.58;;;108.25;;
13368;SDS011;6753;52.520;13.450;2024-02-28T00:46:22;308.83;;;109.40;;
13368;SDS011;6753;52.520;13.450;2024-02-28T00:46:33;309.30;;;108.53;;
13368;SDS011;6753;52.520;13.450;2024-02-28T00:46:43;307.45;;;109.72;;
13368;SDS011;6753;52.520;13.450;2024-02-28T00:46:54;303.10;;;109.20;;
13368;SDS011;6753;52.520;13.450;2024-02-28T00:47:05;302.52;;;105.13;;
13368;SDS011;6753;52.520;13.450;2024-02-28T00:47:16;301.38;;;103.47;;
13368;SDS011;6753;52.520;13.450;2024-02-28T00:47:26;291.10;;;101.28;;
13368;SDS011;6753;52.520;13.450;2024-02-28T00:47:38;287.58;;;100.65;;
13368;SDS011;6753;52.520;13.450;2024-02-28T00:47:50;307.77;;;103.85;;
13368;SDS011;6753;52.520;13.450;2024-02-28T00:48:01;308.55;;;104.25;;
13368;SDS011;6753;52.520;13.450;2024-02-28T00:48:11;303.75;;;105.10;;
13368;SDS011;6753;52.520;13.450;2024-02-28T00:48:22;305.90;;;106.27;;
13368;SDS011;6753;52.520;13.450;2024-02-28T00:48:33;299.90;;;104.13;;
13368;SDS011;6753;52.520;13.450;2024-02-28T00:48:43;296.60;;;103.45;;
13368;SDS011;6753;52.520;13.450;2024-02-28T00:48:54;283.80;;;98.40;;
13368;SDS011;6753;52.520;13.450;2024-02-28T00:49:05;278.67;;;97.03;;
13368;SDS011;6753;52.520;13.450;2024-02-28T00:49:16;276.88;;;96.30;;
13368;SDS011;6753;52.520;13.450;2024-02-28T00:49:26;283.77;;;97.60;;
13368;SDS011;6753;52.520;13.450;2024-02-28T00:49:37;290.98;;;101.72;;
13368;SDS011;6753;52.520;13.450;2024-02-28T00:49:49;300.63;;;104.85;;
13368;SDS011;6753;52.520;13.450;2024-02-28T00:49:59;305.40;;;105.00;;
13368;SDS011;6753;52.520;13.450;2024-02-28T00:50:13;312.73;;;108.00;;
13368;SDS011;6753;52.520;13.450;2024-02-28T00:50:23;300.43;;;107.83;;
13368;SDS011;6753;52.520;13.450;2024-02-28T00:50:34;285.60;;;106.55;;
13368;SDS011;6753;52.520;13.450;2024-02-28T00:50:45;289.85;;;107.18;;
13368;SDS011;6753;52.520;13.450;2024-02-28T00:50:56;286.38;;;106.72;;
13368;SDS011;6753;52.520;13.450;2024-02-28T00:51:06;291.37;;;105.03;;
13368;SDS011;6753;52.520;13.450;2024-02-28T00:51:18;290.52;;;105.10;;
13368;SDS011;6753;52.520;13.450;2024-02-28T00:51:28;297.50;;;103.03;;
13368;SDS011;6753;52.520;13.450;2024-02-28T00:51:40;296.20;;;100.38;;
13368;SDS011;6753;52.520;13.450;2024-02-28T00:51:51;282.60;;;96.25;;
13368;SDS011;6753;52.520;13.450;2024-02-28T00:52:02;270.60;;;97.00;;
13368;SDS011;6753;52.520;13.450;2024-02-28T00:52:13;268.83;;;97.00;;
13368;SDS011;6753;52.520;13.450;2024-02-28T00:52:23;268.00;;;97.30;;
13368;SDS011;6753;52.520;13.450;2024-02-28T00:52:35;261.95;;;98.78;;
13368;SDS011;6753;52.520;13.450;2024-02-28T00:52:46;253.90;;;99.70;;
13368;SDS011;6753;52.520;13.450;2024-02-28T00:52:57;267.00;;;99.23;;
13368;SDS011;6753;52.520;13.450;2024-02-28T00:53:08;274.70;;;99.97;;
13368;SDS011;6753;52.520;13.450;2024-02-28T00:53:19;270.25;;;99.28;;
13368;SDS011;6753;52.520;13.450;2024-02-28T00:53:30;279.45;;;99.40;;
13368;SDS011;6753;52.520;13.450;2024-02-28T00:53:41;286.95;;;100.63;;
13368;SDS011;6753;52.520;13.450;2024-02-28T00:53:53;276.98;;;100.88;;
13368;SDS011;6753;52.520;13.450;2024-02-28T00:54:04;279.80;;;101.63;;
13368;SDS011;6753;52.520;13.450;2024-02-28T00:54:17;284.35;;;100.63;;
13368;SDS011;6753;52.520;13.450;2024-02-28T00:54:28;291.50;;;103.35;;
13368;SDS011;6753;52.520;13.450;2024-02-28T00:54:39;303.60;;;104.63;;
13368;SDS011;6753;52.520;13.450;2024-02-28T00:54:50;305.27;;;103.65;;
13368;SDS011;6753;52.520;13.450;2024-02-28T00:55:00;303.02;;;103.38;;
13368;SDS011;6753;52.520;13.450;2024-02-28T00:55:11;309.10;;;105.70;;
13368;SDS011;6753;52.520;13.450;2024-02-28T00:55:22;314.55;;;103.68;;
13368;SDS011;6753;52.520;13.450;2024-02-28T00:55:33;305.80;;;103.82;;
13368;SDS011;6753;52.520;13.450;2024-02-28T00:55:44;300.20;;;102.25;;
13368;SDS011;6753;52.520;13.450;2024-02-28T00:55:55;286.77;;;100.30;;
13368;SDS011;6753;52.520;13.450;2024-02-28T00:56:06;284.35;;;100.13;;
13368;SDS011;6753;52.520;13.450;2024-02-28T00:56:16;271.23;;;98.13;;
13368;SDS011;6753;52.520;13.450;2024-02-28T00:56:27;262.90;;;96.65;;
13368;SDS011;6753;52.520;13.450;2024-02-28T00:56:38;272.23;;;97.10;;
13368;SDS011;6753;52.520;13.450;2024-02-28T00:56:49;275.37;;;98.13;;
13368;SDS011;6753;52.520;13.450;2024-02-28T00:57:00;284.77;;;100.00;;
13368;SDS011;6753;52.520;13.450;2024-02-28T00:57:10;290.48;;;101.57;;
13368;SDS011;6753;52.520;13.450;2024-02-28T00:57:23;300.05;;;104.45;;
13368;SDS011;6753;52.520;13.450;2024-02-28T00:57:34;298.92;;;103.22;;
13368;SDS011;6753;52.520;13.450;2024-02-28T00:57:45;297.40;;;101.53;;
13368;SDS011;6753;52.520;13.450;2024-02-28T00:57:56;290.27;;;102.55;;
13368;SDS011;6753;52.520;13.450;2024-02-28T00:58:07;289.85;;;100.43;;
13368;SDS011;6753;52.520;13.450;2024-02-28T00:58:17;280.67;;;98.30;;
13368;SDS011;6753;52.520;13.450;2024-02-28T00:58:28;292.17;;;97.97;;
13368;SDS011;6753;52.520;13.450;2024-02-28T00:58:40;289.58;;;99.97;;
13368;SDS011;6753;52.520;13.450;2024-02-28T00:58:50;290.30;;;99.87;;
13368;SDS011;6753;52.520;13.450;2024-02-28T00:59:01;297.42;;;101.45;;
13368;SDS011;6753;52.520;13.450;2024-02-28T00:59:12;315.27;;;109.30;;
13368;SDS011;6753;52.520;13.450;2024-02-28T00:59:24;305.80;;;104.45;;
13368;SDS011;6753;52.520;13.450;2024-02-28T00:59:35;288.35;;;99.97;;
13368;SDS011;6753;52.520;13.450;2024-02-28T00:59:46;285.45;;;100.63;;
13368;SDS011;6753;52.520;13.450;2024-02-28T00:59:56;289.90;;;102.40;;
13368;SDS011;6753;52.520;13.450;2024-02-28T01:00:08;274.25;;;99.13;;
13368;SDS011;6753;52.520;13.450;2024-02-28T01:00:20;278.23;;;98.15;;
13368;SDS011;6753;52.520;13.450;2024-02-28T01:00:33;292.98;;;101.38;;
13368;SDS011;6753;52.520;13.450;2024-02-28T01:00:43;296.58;;;99.80;;
13368;SDS011;6753;52.520;13.450;2024-02-28T01:00:54;305.15;;;97.32;;
13368;SDS011;6753;52.520;13.450;2024-02-28T01:01:05;312.88;;;95.40;;
13368;SDS011;6753;52.520;13.450;2024-02-28T01:01:17;305.83;;;95.18;;
13368;SDS011;6753;52.520;13.450;2024-02-28T01:01:27;301.30;;;93.73;;
13368;SDS011;6753;52.520;13.450;2024-02-28T01:01:38;294.60;;;92.85;;
13368;SDS011;6753;52.520;13.450;2024-02-28T01:01:49;291.58;;;94.32;;
13368;SDS011;6753;52.520;13.450;2024-02-28T01:02:00;286.80;;;94.85;;
13368;SDS011;6753;52.520;13.450;2024-02-28T01:02:13;278.58;;;93.13;;
13368;SDS011;6753;52.520;13.450;2024-02-28T01:02:24;276.33;;;94.47;;
13368;SDS011;6753;52.520;13.450;2024-02-28T01:02:34;286.33;;;96.80;;
13368;SDS011;6753;52.520;13.450;2024-02-28T01:02:45;283.88;;;96.10;;
13368;SDS011;6753;52.520;13.450;2024-02-28T01:02:57;277.80;;;95.20;;
13368;SDS011;6753;52.520;13.450;2024-02-28T01:03:07;283.48;;;95.78;;
13368;SDS011;6753;52.520;13.450;2024-02-28T01:03:20;280.50;;;94.80;;
13368;SDS011;6753;52.520;13.450;2024-02-28T01:03:31;278.52;;;94.22;;
13368;SDS011;6753;52.520;13.450;2024-02-28T01:03:42;278.00;;;94.37;;